sensor_id;sensor_type;location;lat;lon;timestamp;pressure;altitude;pressure_sealevel;temperature;humidity
21109;BME280;10712;52.944;9.098;2022-07-06T00:01:36;102183.63;;;22.45;43.55
21109;BME280;10712;52.944;9.098;2022-07-06T00:04:03;102176.44;;;22.44;43.27
21109;BME280;10712;52.944;9.098;2022-07-06T00:06:29;102178.72;;;22.39;43.45
21109;BME280;10712;52.944;9.098;2022-07-06T00:08:55;102179.47;;;22.30;43.37
21109;BME280;10712;52.944;9.098;2022-07-06T00:11:21;102181.22;;;22.31;43.53
21109;BME280;10712;52.944;9.098;2022-07-06T00:13:47;102183.19;;;22.29;43.62
21109;BME280;10712;52.944;9.098;2022-07-06T00:16:13;102183.19;;;22.29;43.73
21109;BME280;10712;52.944;9.098;2022-07-06T00:18:39;102181.00;;;22.23;43.57
21109;BME280;10712;52.944;9.098;2022-07-06T00:21:05;102184.81;;;22.20;43.80
21109;BME280;10712;52.944;9.098;2022-07-06T00:23:31;102183.25;;;22.18;44.14
21109;BME280;10712;52.944;9.098;2022-07-06T00:25:57;102185.97;;;22.18;44.09
21109;BME280;10712;52.944;9.098;2022-07-06T00:28:23;102186.19;;;22.15;44.02
21109;BME280;10712;52.944;9.098;2022-07-06T00:30:49;102180.31;;;22.10;44.12
21109;BME280;10712;52.944;9.098;2022-07-06T00:33:15;102183.03;;;22.10;44.24
21109;BME280;10712;52.944;9.098;2022-07-06T00:35:43;102186.59;;;22.10;44.47
21109;BME280;10712;52.944;9.098;2022-07-06T00:38:09;102185.63;;;22.11;44.10
21109;BME280;10712;52.944;9.098;2022-07-06T00:40:35;102188.22;;;22.13;43.99
21109;BME280;10712;52.944;9.098;2022-07-06T00:43:01;102184.75;;;22.11;44.38
21109;BME280;10712;52.944;9.098;2022-07-06T00:45:27;102193.25;;;22.06;44.23
21109;BME280;10712;52.944;9.098;2022-07-06T00:47:53;102189.22;;;22.00;44.58
21109;BME280;10712;52.944;9.098;2022-07-06T00:50:20;102181.81;;;22.03;44.53
21109;BME280;10712;52.944;9.098;2022-07-06T00:52:54;102188.97;;;22.04;44.49
21109;BME280;10712;52.944;9.098;2022-07-06T00:55:27;102186.13;;;22.05;44.53
21109;BME280;10712;52.944;9.098;2022-07-06T00:57:55;102192.44;;;22.06;44.79
21109;BME280;10712;52.944;9.098;2022-07-06T01:00:25;102186.72;;;22.09;44.43
21109;BME280;10712;52.944;9.098;2022-07-06T01:02:52;102193.63;;;22.13;44.28
21109;BME280;10712;52.944;9.098;2022-07-06T01:05:20;102181.03;;;22.12;44.58
21109;BME280;10712;52.944;9.098;2022-07-06T01:07:48;102187.47;;;22.11;44.45
21109;BME280;10712;52.944;9.098;2022-07-06T01:10:17;102179.84;;;22.05;44.82
21109;BME280;10712;52.944;9.098;2022-07-06T01:12:45;102170.94;;;22.03;44.67
21109;BME280;10712;52.944;9.098;2022-07-06T01:15:22;102177.50;;;22.00;44.92
21109;BME280;10712;52.944;9.098;2022-07-06T01:17:50;102175.13;;;21.95;44.90
21109;BME280;10712;52.944;9.098;2022-07-06T01:20:22;102177.09;;;21.93;45.24
21109;BME280;10712;52.944;9.098;2022-07-06T01:22:52;102170.34;;;21.88;45.27
21109;BME280;10712;52.944;9.098;2022-07-06T01:25:20;102179.13;;;21.91;45.13
21109;BME280;10712;52.944;9.098;2022-07-06T01:27:47;102173.69;;;21.91;45.22
21109;BME280;10712;52.944;9.098;2022-07-06T01:30:18;102178.84;;;21.94;45.33
21109;BME280;10712;52.944;9.098;2022-07-06T01:32:44;102175.13;;;21.95;45.61
21109;BME280;10712;52.944;9.098;2022-07-06T01:35:14;102171.19;;;21.99;45.28
21109;BME280;10712;52.944;9.098;2022-07-06T01:37:42;102169.50;;;21.98;45.50
21109;BME280;10712;52.944;9.098;2022-07-06T01:40:11;102167.97;;;21.94;45.64
21109;BME280;10712;52.944;9.098;2022-07-06T01:42:38;102173.69;;;21.91;45.91
21109;BME280;10712;52.944;9.098;2022-07-06T01:45:05;102171.19;;;21.99;45.70
21109;BME280;10712;52.944;9.098;2022-07-06T01:47:33;102183.78;;;22.00;45.87
21109;BME280;10712;52.944;9.098;2022-07-06T01:50:02;102178.97;;;22.04;45.69
21109;BME280;10712;52.944;9.098;2022-07-06T01:52:31;102175.97;;;22.07;45.87
21109;BME280;10712;52.944;9.098;2022-07-06T01:54:57;102176.59;;;22.11;45.73
21109;BME280;10712;52.944;9.098;2022-07-06T01:57:24;102170.19;;;22.12;45.51
21109;BME280;10712;52.944;9.098;2022-07-06T01:59:50;102173.88;;;22.11;45.82
21109;BME280;10712;52.944;9.098;2022-07-06T02:02:17;102172.16;;;22.10;45.89
21109;BME280;10712;52.944;9.098;2022-07-06T02:04:44;102172.41;;;22.07;46.09
21109;BME280;10712;52.944;9.098;2022-07-06T02:07:10;102168.72;;;22.08;46.07
21109;BME280;10712;52.944;9.098;2022-07-06T02:09:37;102170.72;;;22.06;45.76
21109;BME280;10712;52.944;9.098;2022-07-06T02:12:03;102171.06;;;22.01;45.96
21109;BME280;10712;52.944;9.098;2022-07-06T02:14:29;102164.78;;;22.00;46.26
21109;BME280;10712;52.944;9.098;2022-07-06T02:16:55;102165.53;;;22.03;46.43
21109;BME280;10712;52.944;9.098;2022-07-06T02:19:21;102172.41;;;22.07;46.38
21109;BME280;10712;52.944;9.098;2022-07-06T02:21:47;102170.44;;;22.09;46.36
21109;BME280;10712;52.944;9.098;2022-07-06T02:24:13;102170.19;;;22.12;46.17
21109;BME280;10712;52.944;9.098;2022-07-06T02:26:40;102168.72;;;22.08;46.25
21109;BME280;10712;52.944;9.098;2022-07-06T02:29:06;102169.84;;;22.05;46.29
21109;BME280;10712;52.944;9.098;2022-07-06T02:31:32;102170.72;;;22.06;46.78
21109;BME280;10712;52.944;9.098;2022-07-06T02:33:58;102168.25;;;22.03;46.67
21109;BME280;10712;52.944;9.098;2022-07-06T02:36:23;102176.13;;;22.06;46.91
21109;BME280;10712;52.944;9.098;2022-07-06T02:38:49;102167.84;;;22.07;46.81
21109;BME280;10712;52.944;9.098;2022-07-06T02:41:15;102166.13;;;22.06;46.58
21109;BME280;10712;52.944;9.098;2022-07-06T02:43:41;102184.00;;;22.09;46.95
21109;BME280;10712;52.944;9.098;2022-07-06T02:46:08;102176.97;;;22.06;46.87
21109;BME280;10712;52.944;9.098;2022-07-06T02:48:34;102170.94;;;22.03;47.28
21109;BME280;10712;52.944;9.098;2022-07-06T02:51:00;102169.94;;;21.92;47.38
21109;BME280;10712;52.944;9.098;2022-07-06T02:53:27;102171.47;;;21.96;47.76
21109;BME280;10712;52.944;9.098;2022-07-06T02:55:54;102164.19;;;21.86;47.77
21109;BME280;10712;52.944;9.098;2022-07-06T02:58:20;102169.25;;;21.90;47.90
21109;BME280;10712;52.944;9.098;2022-07-06T03:00:46;102167.97;;;21.94;47.93
21109;BME280;10712;52.944;9.098;2022-07-06T03:03:12;102171.47;;;21.96;48.11
21109;BME280;10712;52.944;9.098;2022-07-06T03:05:39;102177.75;;;21.97;47.91
21109;BME280;10712;52.944;9.098;2022-07-06T03:08:05;102178.63;;;21.97;47.82
21109;BME280;10712;52.944;9.098;2022-07-06T03:10:31;102186.00;;;21.95;48.05
21109;BME280;10712;52.944;9.098;2022-07-06T03:12:57;102185.41;;;21.92;48.00
21109;BME280;10712;52.944;9.098;2022-07-06T03:15:23;102189.69;;;21.94;48.01
21109;BME280;10712;52.944;9.098;2022-07-06T03:17:49;102186.22;;;21.92;48.32
21109;BME280;10712;52.944;9.098;2022-07-06T03:20:16;102186.75;;;21.86;48.51
21109;BME280;10712;52.944;9.098;2022-07-06T03:22:43;102189.22;;;21.89;48.26
21109;BME280;10712;52.944;9.098;2022-07-06T03:25:11;102195.63;;;21.88;48.31
21109;BME280;10712;52.944;9.098;2022-07-06T03:27:39;102189.34;;;21.88;48.71
21109;BME280;10712;52.944;9.098;2022-07-06T03:30:05;102195.13;;;21.94;48.53
21109;BME280;10712;52.944;9.098;2022-07-06T03:32:33;102198.81;;;21.93;48.29
21109;BME280;10712;52.944;9.098;2022-07-06T03:35:02;102194.38;;;21.92;48.54
21109;BME280;10712;52.944;9.098;2022-07-06T03:37:28;102187.38;;;21.90;48.55
21109;BME280;10712;52.944;9.098;2022-07-06T03:39:53;102196.84;;;21.95;48.59
21109;BME280;10712;52.944;9.098;2022-07-06T03:42:19;102194.91;;;21.97;48.67
21109;BME280;10712;52.944;9.098;2022-07-06T03:44:45;102192.69;;;21.91;48.73
21109;BME280;10712;52.944;9.098;2022-07-06T03:47:12;102187.38;;;21.90;48.72
21109;BME280;10712;52.944;9.098;2022-07-06T03:49:38;102193.38;;;21.93;48.74
21109;BME280;10712;52.944;9.098;2022-07-06T03:52:06;102193.66;;;21.90;48.81
21109;BME280;10712;52.944;9.098;2022-07-06T03:54:40;102193.28;;;21.95;48.99
21109;BME280;10712;52.944;9.098;2022-07-06T03:57:07;102189.47;;;21.97;48.75
21109;BME280;10712;52.944;9.098;2022-07-06T03:59:33;102194.63;;;22.00;48.59
21109;BME280;10712;52.944;9.098;2022-07-06T04:01:59;102190.94;;;22.02;48.76
21109;BME280;10712;52.944;9.098;2022-07-06T04:04:25;102193.66;;;22.02;49.05
21109;BME280;10712;52.944;9.098;2022-07-06T04:06:51;102190.19;;;21.99;49.16
21109;BME280;10712;52.944;9.098;2022-07-06T04:09:18;102195.91;;;21.96;49.07
21109;BME280;10712;52.944;9.098;2022-07-06T04:11:45;102205.97;;;21.94;49.43
21109;BME280;10712;52.944;9.098;2022-07-06T04:14:11;102197.47;;;21.99;49.62
21109;BME280;10712;52.944;9.098;2022-07-06T04:16:37;102201.31;;;21.96;49.51
21109;BME280;10712;52.944;9.098;2022-07-06T04:19:03;102196.38;;;22.02;49.33
21109;BME280;10712;52.944;9.098;2022-07-06T04:21:29;102198.63;;;21.96;49.46
21109;BME280;10712;52.944;9.098;2022-07-06T04:23:55;102207.22;;;22.02;49.53
21109;BME280;10712;52.944;9.098;2022-07-06T04:26:22;102201.28;;;22.08;49.39
21109;BME280;10712;52.944;9.098;2022-07-06T04:28:48;102205.31;;;22.13;49.20
21109;BME280;10712;52.944;9.098;2022-07-06T04:31:14;102199.78;;;22.15;49.06
21109;BME280;10712;52.944;9.098;2022-07-06T04:33:43;102196.81;;;22.18;49.14
21109;BME280;10712;52.944;9.098;2022-07-06T04:36:10;102196.53;;;22.21;49.10
21109;BME280;10712;52.944;9.098;2022-07-06T04:38:40;102196.28;;;22.24;48.86
21109;BME280;10712;52.944;9.098;2022-07-06T04:41:07;102197.75;;;22.28;48.69
21109;BME280;10712;52.944;9.098;2022-07-06T04:43:33;102193.19;;;22.28;48.61
21109;BME280;10712;52.944;9.098;2022-07-06T04:45:59;102193.19;;;22.28;48.77
21109;BME280;10712;52.944;9.098;2022-07-06T04:48:27;102202.66;;;22.34;48.67
21109;BME280;10712;52.944;9.098;2022-07-06T04:50:54;102195.66;;;22.31;48.73
21109;BME280;10712;52.944;9.098;2022-07-06T04:53:25;102187.28;;;22.23;48.88
21109;BME280;10712;52.944;9.098;2022-07-06T04:55:51;102189.34;;;22.31;48.87
21109;BME280;10712;52.944;9.098;2022-07-06T04:58:17;102189.81;;;22.36;48.96
21109;BME280;10712;52.944;9.098;2022-07-06T05:00:43;102193.31;;;22.27;49.23
21109;BME280;10712;52.944;9.098;2022-07-06T05:03:09;102190.59;;;22.27;49.33
21109;BME280;10712;52.944;9.098;2022-07-06T05:05:35;102192.94;;;22.31;48.96
21109;BME280;10712;52.944;9.098;2022-07-06T05:08:01;102187.22;;;22.34;49.13
21109;BME280;10712;52.944;9.098;2022-07-06T05:10:27;102195.88;;;22.39;49.02
21109;BME280;10712;52.944;9.098;2022-07-06T05:12:56;102203.84;;;22.41;49.00
21109;BME280;10712;52.944;9.098;2022-07-06T05:15:23;102196.56;;;22.42;48.86
21109;BME280;10712;52.944;9.098;2022-07-06T05:17:50;102194.47;;;22.45;48.71
21109;BME280;10712;52.944;9.098;2022-07-06T05:20:18;102203.81;;;22.52;48.54
21109;BME280;10712;52.944;9.098;2022-07-06T05:22:46;102202.69;;;22.55;48.47
21109;BME280;10712;52.944;9.098;2022-07-06T05:25:16;102200.56;;;22.58;48.15
21109;BME280;10712;52.944;9.098;2022-07-06T05:27:42;102200.56;;;22.58;48.08
21109;BME280;10712;52.944;9.098;2022-07-06T05:30:09;102196.59;;;22.62;48.36
21109;BME280;10712;52.944;9.098;2022-07-06T05:32:35;102199.06;;;22.65;48.11
21109;BME280;10712;52.944;9.098;2022-07-06T05:35:01;102199.50;;;22.70;48.33
21109;BME280;10712;52.944;9.098;2022-07-06T05:37:28;102199.38;;;22.72;48.23
21109;BME280;10712;52.944;9.098;2022-07-06T05:39:54;102202.72;;;22.75;47.88
21109;BME280;10712;52.944;9.098;2022-07-06T05:42:20;102211.34;;;22.81;47.88
21109;BME280;10712;52.944;9.098;2022-07-06T05:44:46;102208.22;;;22.85;47.55
21109;BME280;10712;52.944;9.098;2022-07-06T05:47:13;102210.53;;;22.90;47.43
21109;BME280;10712;52.944;9.098;2022-07-06T05:49:58;102210.84;;;22.96;47.49
21109;BME280;10712;52.944;9.098;2022-07-06T05:53:04;102211.72;;;22.97;46.83
21109;BME280;10712;52.944;9.098;2022-07-06T05:55:31;102212.66;;;23.07;46.80
21109;BME280;10712;52.944;9.098;2022-07-06T05:58:00;102216.44;;;23.15;46.63
21109;BME280;10712;52.944;9.098;2022-07-06T06:00:29;102215.03;;;23.21;46.08
21109;BME280;10712;52.944;9.098;2022-07-06T06:03:00;102221.66;;;23.07;45.79
21109;BME280;10712;52.944;9.098;2022-07-06T06:05:27;102227.88;;;23.19;45.40
21109;BME280;10712;52.944;9.098;2022-07-06T06:07:57;102223.38;;;23.29;45.24
21109;BME280;10712;52.944;9.098;2022-07-06T06:10:25;102222.22;;;23.32;45.19
21109;BME280;10712;52.944;9.098;2022-07-06T06:12:54;102229.50;;;23.31;45.52
21109;BME280;10712;52.944;9.098;2022-07-06T06:15:21;102235.69;;;23.33;45.70
21109;BME280;10712;52.944;9.098;2022-07-06T06:17:47;102235.63;;;23.24;45.57
21109;BME280;10712;52.944;9.098;2022-07-06T06:20:14;102226.78;;;23.01;45.33
21109;BME280;10712;52.944;9.098;2022-07-06T06:22:57;102226.75;;;23.22;45.38
21109;BME280;10712;52.944;9.098;2022-07-06T06:25:38;102232.72;;;23.36;45.06
21109;BME280;10712;52.944;9.098;2022-07-06T06:28:08;102220.63;;;23.50;44.93
21109;BME280;10712;52.944;9.098;2022-07-06T06:30:35;102231.03;;;23.24;45.55
21109;BME280;10712;52.944;9.098;2022-07-06T06:33:20;102230.84;;;23.37;45.24
21109;BME280;10712;52.944;9.098;2022-07-06T06:35:51;102221.50;;;23.50;44.79
21109;BME280;10712;52.944;9.098;2022-07-06T06:38:22;102216.63;;;23.54;44.59
21109;BME280;10712;52.944;9.098;2022-07-06T06:40:52;102221.81;;;23.67;44.82
21109;BME280;10712;52.944;9.098;2022-07-06T06:43:18;102222.97;;;23.74;44.74
21109;BME280;10712;52.944;9.098;2022-07-06T06:46:02;102218.91;;;23.59;45.13
21109;BME280;10712;52.944;9.098;2022-07-06T06:48:28;102221.41;;;23.81;44.86
21109;BME280;10712;52.944;9.098;2022-07-06T06:50:54;102221.78;;;23.57;45.26
21109;BME280;10712;52.944;9.098;2022-07-06T06:53:20;102220.94;;;23.66;44.89
21109;BME280;10712;52.944;9.098;2022-07-06T06:55:46;102224.16;;;23.81;44.53
21109;BME280;10712;52.944;9.098;2022-07-06T06:58:11;102229.84;;;23.68;44.91
21109;BME280;10712;52.944;9.098;2022-07-06T07:00:37;102230.50;;;23.91;44.60
21109;BME280;10712;52.944;9.098;2022-07-06T07:03:03;102222.16;;;23.83;44.24
21109;BME280;10712;52.944;9.098;2022-07-06T07:05:29;102230.19;;;23.94;44.20
21109;BME280;10712;52.944;9.098;2022-07-06T07:07:55;102225.63;;;24.04;43.92
21109;BME280;10712;52.944;9.098;2022-07-06T07:10:25;102236.81;;;24.11;44.13
21109;BME280;10712;52.944;9.098;2022-07-06T07:12:51;102236.84;;;24.20;43.97
21109;BME280;10712;52.944;9.098;2022-07-06T07:15:17;102235.75;;;24.32;43.26
21109;BME280;10712;52.944;9.098;2022-07-06T07:17:43;102240.59;;;24.19;42.24
21109;BME280;10712;52.944;9.098;2022-07-06T07:20:11;102236.00;;;24.29;42.17
21109;BME280;10712;52.944;9.098;2022-07-06T07:22:36;102241.03;;;24.34;42.15
21109;BME280;10712;52.944;9.098;2022-07-06T07:25:04;102241.19;;;24.42;42.33
21109;BME280;10712;52.944;9.098;2022-07-06T07:27:30;102250.38;;;24.51;42.37
21109;BME280;10712;52.944;9.098;2022-07-06T07:29:56;102253.25;;;24.59;42.36
21109;BME280;10712;52.944;9.098;2022-07-06T07:32:22;102260.13;;;24.72;42.26
21109;BME280;10712;52.944;9.098;2022-07-06T07:34:48;102244.19;;;24.78;41.92
21109;BME280;10712;52.944;9.098;2022-07-06T07:37:13;102251.22;;;24.80;41.77
21109;BME280;10712;52.944;9.098;2022-07-06T07:39:39;102254.94;;;24.89;41.88
21109;BME280;10712;52.944;9.098;2022-07-06T07:42:05;102262.97;;;24.90;41.34
21109;BME280;10712;52.944;9.098;2022-07-06T07:44:31;102263.25;;;24.97;40.87
21109;BME280;10712;52.944;9.098;2022-07-06T07:46:57;102266.16;;;24.95;40.29
21109;BME280;10712;52.944;9.098;2022-07-06T07:49:23;102264.44;;;24.94;40.50
21109;BME280;10712;52.944;9.098;2022-07-06T07:51:49;102261.97;;;24.91;40.35
21109;BME280;10712;52.944;9.098;2022-07-06T07:54:15;102255.53;;;24.92;40.22
21109;BME280;10712;52.944;9.098;2022-07-06T07:56:41;102264.72;;;24.91;40.31
21109;BME280;10712;52.944;9.098;2022-07-06T07:59:08;102257.66;;;24.98;39.90
21109;BME280;10712;52.944;9.098;2022-07-06T08:01:35;102265.72;;;25.00;39.73
21109;BME280;10712;52.944;9.098;2022-07-06T08:04:02;102263.38;;;25.15;39.42
21109;BME280;10712;52.944;9.098;2022-07-06T08:06:28;102259.47;;;25.17;39.46
21109;BME280;10712;52.944;9.098;2022-07-06T08:08:54;102252.88;;;25.20;39.55
21109;BME280;10712;52.944;9.098;2022-07-06T08:11:20;102251.59;;;25.24;39.69
21109;BME280;10712;52.944;9.098;2022-07-06T08:13:47;102251.16;;;25.19;39.64
21109;BME280;10712;52.944;9.098;2022-07-06T08:16:13;102253.72;;;25.30;39.47
21109;BME280;10712;52.944;9.098;2022-07-06T08:18:39;102257.47;;;25.29;39.22
21109;BME280;10712;52.944;9.098;2022-07-06T08:21:05;102255.88;;;25.26;39.63
21109;BME280;10712;52.944;9.098;2022-07-06T08:23:31;102266.72;;;25.08;39.54
21109;BME280;10712;52.944;9.098;2022-07-06T08:26:01;102263.53;;;25.03;39.92
21109;BME280;10712;52.944;9.098;2022-07-06T08:28:27;102258.06;;;25.03;39.93
21109;BME280;10712;52.944;9.098;2022-07-06T08:30:53;102270.03;;;25.02;39.85
21109;BME280;10712;52.944;9.098;2022-07-06T08:33:20;102271.31;;;24.98;39.89
21109;BME280;10712;52.944;9.098;2022-07-06T08:35:46;102261.41;;;24.88;40.00
21109;BME280;10712;52.944;9.098;2022-07-06T08:38:12;102267.84;;;24.96;40.00
21109;BME280;10712;52.944;9.098;2022-07-06T08:40:40;102267.03;;;24.96;39.85
21109;BME280;10712;52.944;9.098;2022-07-06T08:43:06;102262.13;;;24.99;39.80
21109;BME280;10712;52.944;9.098;2022-07-06T08:45:34;102261.25;;;24.89;39.63
21109;BME280;10712;52.944;9.098;2022-07-06T08:48:06;102259.25;;;25.01;39.59
21109;BME280;10712;52.944;9.098;2022-07-06T08:50:34;102254.66;;;25.01;39.47
21109;BME280;10712;52.944;9.098;2022-07-06T08:53:00;102261.53;;;25.05;39.69
21109;BME280;10712;52.944;9.098;2022-07-06T08:55:28;102262.81;;;25.11;39.96
21109;BME280;10712;52.944;9.098;2022-07-06T08:57:58;102266.38;;;25.11;39.54
21109;BME280;10712;52.944;9.098;2022-07-06T09:00:25;102262.78;;;25.21;39.69
21109;BME280;10712;52.944;9.098;2022-07-06T09:02:52;102262.06;;;25.28;39.97
21109;BME280;10712;52.944;9.098;2022-07-06T09:05:23;102264.31;;;25.33;39.66
21109;BME280;10712;52.944;9.098;2022-07-06T09:07:51;102257.13;;;25.41;39.46
21109;BME280;10712;52.944;9.098;2022-07-06T09:10:21;102256.84;;;25.44;39.72
21109;BME280;10712;52.944;9.098;2022-07-06T09:12:48;102249.31;;;25.56;39.09
21109;BME280;10712;52.944;9.098;2022-07-06T09:15:14;102252.28;;;25.72;38.96
21109;BME280;10712;52.944;9.098;2022-07-06T09:17:42;102247.72;;;25.91;38.83
21109;BME280;10712;52.944;9.098;2022-07-06T09:20:13;102237.28;;;26.04;38.34
21109;BME280;10712;52.944;9.098;2022-07-06T09:22:39;102232.53;;;26.23;38.03
21109;BME280;10712;52.944;9.098;2022-07-06T09:25:11;102233.63;;;26.40;38.00
21109;BME280;10712;52.944;9.098;2022-07-06T09:27:46;102240.84;;;26.49;37.44
21109;BME280;10712;52.944;9.098;2022-07-06T09:30:21;102244.06;;;26.27;36.75
21109;BME280;10712;52.944;9.098;2022-07-06T09:32:51;102246.81;;;26.45;37.02
21109;BME280;10712;52.944;9.098;2022-07-06T09:40:32;102255.88;;;26.18;37.65
21109;BME280;10712;52.944;9.098;2022-07-06T09:43:16;102237.38;;;26.12;37.60
21109;BME280;10712;52.944;9.098;2022-07-06T09:45:51;102249.41;;;26.19;37.48
21109;BME280;10712;52.944;9.098;2022-07-06T09:48:28;102238.28;;;26.30;37.65
21109;BME280;10712;52.944;9.098;2022-07-06T09:51:00;102245.69;;;26.38;37.25
21109;BME280;10712;52.944;9.098;2022-07-06T09:53:29;102249.38;;;26.46;36.87
21109;BME280;10712;52.944;9.098;2022-07-06T09:55:57;102247.66;;;26.45;36.23
21109;BME280;10712;52.944;9.098;2022-07-06T09:58:27;102251.56;;;26.25;36.15
21109;BME280;10712;52.944;9.098;2022-07-06T10:00:53;102259.59;;;26.26;36.22
21109;BME280;10712;52.944;9.098;2022-07-06T10:03:19;102262.50;;;26.25;36.71
21109;BME280;10712;52.944;9.098;2022-07-06T10:05:47;102266.63;;;26.02;36.36
21109;BME280;10712;52.944;9.098;2022-07-06T10:08:16;102276.75;;;25.92;36.78
21109;BME280;10712;52.944;9.098;2022-07-06T10:10:43;102280.59;;;25.71;36.96
21109;BME280;10712;52.944;9.098;2022-07-06T10:13:11;102277.69;;;25.73;37.31
21109;BME280;10712;52.944;9.098;2022-07-06T10:15:39;102268.84;;;25.61;37.44
21109;BME280;10712;52.944;9.098;2022-07-06T10:18:08;102269.41;;;25.55;37.81
21109;BME280;10712;52.944;9.098;2022-07-06T10:20:37;102264.31;;;25.33;38.30
21109;BME280;10712;52.944;9.098;2022-07-06T10:23:06;102264.84;;;25.46;38.27
21109;BME280;10712;52.944;9.098;2022-07-06T10:25:34;102261.97;;;25.47;37.99
21109;BME280;10712;52.944;9.098;2022-07-06T10:28:01;102254.19;;;25.62;38.01
21109;BME280;10712;52.944;9.098;2022-07-06T10:30:29;102268.56;;;25.64;37.75
21109;BME280;10712;52.944;9.098;2022-07-06T10:32:58;102256.47;;;25.67;38.12
21109;BME280;10712;52.944;9.098;2022-07-06T10:35:25;102253.31;;;25.71;38.01
21109;BME280;10712;52.944;9.098;2022-07-06T10:38:11;102251.88;;;25.67;37.69
21109;BME280;10712;52.944;9.098;2022-07-06T10:40:41;102250.06;;;25.85;37.89
21109;BME280;10712;52.944;9.098;2022-07-06T10:43:45;102256.56;;;25.75;37.06
21109;BME280;10712;52.944;9.098;2022-07-06T10:46:16;102251.34;;;26.09;37.09
21109;BME280;10712;52.944;9.098;2022-07-06T10:48:47;102243.84;;;26.11;36.95
21109;BME280;10712;52.944;9.098;2022-07-06T10:51:25;102230.97;;;26.21;36.57
21109;BME280;10712;52.944;9.098;2022-07-06T10:54:04;102237.97;;;26.33;36.43
21109;BME280;10712;52.944;9.098;2022-07-06T10:56:38;102239.22;;;26.56;35.23
21109;BME280;10712;52.944;9.098;2022-07-06T10:59:29;102236.09;;;26.51;33.36
21109;BME280;10712;52.944;9.098;2022-07-06T11:02:17;102239.34;;;26.90;33.76
21109;BME280;10712;52.944;9.098;2022-07-06T11:04:47;102242.75;;;27.10;33.70
21109;BME280;10712;52.944;9.098;2022-07-06T11:07:16;102236.41;;;27.35;32.83
21109;BME280;10712;52.944;9.098;2022-07-06T11:09:58;102235.38;;;27.36;33.30
21109;BME280;10712;52.944;9.098;2022-07-06T11:12:25;102235.78;;;27.50;32.46
21109;BME280;10712;52.944;9.098;2022-07-06T11:14:52;102229.16;;;27.26;31.97
21109;BME280;10712;52.944;9.098;2022-07-06T11:17:19;102230.50;;;27.22;32.32
21109;BME280;10712;52.944;9.098;2022-07-06T11:19:57;102228.91;;;27.37;32.40
21109;BME280;10712;52.944;9.098;2022-07-06T11:22:23;102222.84;;;27.60;31.99
21109;BME280;10712;52.944;9.098;2022-07-06T11:24:50;102221.16;;;27.59;32.37
21109;BME280;10712;52.944;9.098;2022-07-06T11:27:18;102226.66;;;27.67;32.32
21109;BME280;10712;52.944;9.098;2022-07-06T11:29:44;102223.38;;;27.29;32.20
21109;BME280;10712;52.944;9.098;2022-07-06T11:32:12;102223.16;;;27.23;32.44
21109;BME280;10712;52.944;9.098;2022-07-06T11:34:44;102220.28;;;27.32;32.79
21109;BME280;10712;52.944;9.098;2022-07-06T11:37:13;102227.69;;;27.40;33.17
21109;BME280;10712;52.944;9.098;2022-07-06T11:39:42;102221.03;;;27.42;33.46
21109;BME280;10712;52.944;9.098;2022-07-06T11:42:13;102228.72;;;27.39;33.33
21109;BME280;10712;52.944;9.098;2022-07-06T11:44:40;102227.50;;;27.33;33.31
21109;BME280;10712;52.944;9.098;2022-07-06T11:47:08;102223.44;;;27.45;33.35
21109;BME280;10712;52.944;9.098;2022-07-06T11:49:38;102216.63;;;27.50;33.49
21109;BME280;10712;52.944;9.098;2022-07-06T11:52:12;102215.34;;;27.62;33.68
21109;BME280;10712;52.944;9.098;2022-07-06T11:54:40;102217.72;;;27.57;33.40
21109;BME280;10712;52.944;9.098;2022-07-06T11:57:10;102219.75;;;27.55;33.31
21109;BME280;10712;52.944;9.098;2022-07-06T11:59:40;102218.63;;;27.73;32.70
21109;BME280;10712;52.944;9.098;2022-07-06T12:02:11;102219.13;;;27.69;32.72
21109;BME280;10712;52.944;9.098;2022-07-06T12:04:41;102210.59;;;27.72;32.90
21109;BME280;10712;52.944;9.098;2022-07-06T12:07:11;102210.94;;;27.43;32.61
21109;BME280;10712;52.944;9.098;2022-07-06T12:09:40;102215.03;;;27.73;32.90
21109;BME280;10712;52.944;9.098;2022-07-06T12:12:08;102207.84;;;27.80;33.27
21109;BME280;10712;52.944;9.098;2022-07-06T12:14:39;102211.91;;;27.60;33.56
21109;BME280;10712;52.944;9.098;2022-07-06T12:17:10;102208.53;;;27.74;33.53
21109;BME280;10712;52.944;9.098;2022-07-06T12:19:37;102207.84;;;27.72;33.35
21109;BME280;10712;52.944;9.098;2022-07-06T12:22:05;102198.63;;;27.81;33.58
21109;BME280;10712;52.944;9.098;2022-07-06T12:24:33;102201.13;;;27.66;33.32
21109;BME280;10712;52.944;9.098;2022-07-06T12:27:15;102194.28;;;27.62;33.41
21109;BME280;10712;52.944;9.098;2022-07-06T12:29:41;102199.28;;;27.75;33.19
21109;BME280;10712;52.944;9.098;2022-07-06T12:32:19;102198.28;;;27.76;33.54
21109;BME280;10712;52.944;9.098;2022-07-06T12:34:45;102186.00;;;27.96;33.40
21109;BME280;10712;52.944;9.098;2022-07-06T12:37:11;102189.06;;;27.85;33.18
21109;BME280;10712;52.944;9.098;2022-07-06T12:39:43;102190.06;;;27.76;33.01
21109;BME280;10712;52.944;9.098;2022-07-06T12:42:15;102195.19;;;27.71;33.05
21109;BME280;10712;52.944;9.098;2022-07-06T12:44:45;102183.22;;;27.72;32.86
21109;BME280;10712;52.944;9.098;2022-07-06T12:47:12;102180.47;;;27.80;32.98
21109;BME280;10712;52.944;9.098;2022-07-06T12:49:42;102177.75;;;27.88;32.94
21109;BME280;10712;52.944;9.098;2022-07-06T12:52:13;102169.72;;;27.95;33.21
21109;BME280;10712;52.944;9.098;2022-07-06T12:54:49;102170.28;;;28.06;33.04
21109;BME280;10712;52.944;9.098;2022-07-06T12:57:21;102166.72;;;28.22;32.94
21109;BME280;10712;52.944;9.098;2022-07-06T13:02:26;102155.91;;;28.29;31.13
21109;BME280;10712;52.944;9.098;2022-07-06T13:05:02;102170.66;;;28.19;31.02